METAR Data
IDs: Format: Raw Decoded Include TAF

Data at: 0835 UTC 20 Sep 2018

KISM 200756Z AUTO 00000KT 10SM CLR 25/24 A2999 RMK AO2 SLP158 T02500239
KISM 200656Z AUTO 00000KT 10SM CLR 24/24 A2999 RMK AO2 SLP157 T02440239
KISM 200556Z AUTO 00000KT 10SM CLR 25/23 A3001 RMK AO2 SLP164 60001 T02500233 10250 20244 58000
KISM 200456Z AUTO 00000KT 10SM CLR 24/24 A3003 RMK AO2 SLP169 T02440239 403440244
KISM 200356Z AUTO 00000KT 10SM CLR 25/23 A3003 RMK AO2 SLP169 T02500233
KISM 200256Z AUTO 00000KT 10SM CLR 25/23 A3001 RMK AO2 SLP164 60001 T02500233 51013
KISM 200156Z 00000KT 10SM BKN070 25/23 A3000 RMK AO2 SLP160 T02500233
KISM 200056Z 25005KT 10SM CLR 24/23 A2999 RMK AO2 SLP156 P0001 T02440233
KISM 192356Z 31005KT 10SM SCT120 25/23 A2998 RMK AO2 RAE04 SLP152 P0000 60061 T02500233 10344 20244 53004
KISM 192256Z 19004KT 10SM -RA FEW035 BKN048 OVC100 24/23 A2996 RMK AO2 LTG DSNT ALQDS TSE46 SLP146 P0003 T02440228
KISM 192252Z 16005KT 10SM -RA FEW037 BKN048 OVC100 24/23 A2995 RMK AO2 LTG DSNT ALQDS TSE46 P0003
KISM 192156Z 11013KT 10SM -TSRA SCT040 OVC060 24/23 A2996 RMK AO2 LTG DSNT ALQDS TSB03 SLP148 P0002 T02440228
KISM 192119Z 13009KT 10SM -TSRA FEW003 SCT008 BKN075 27/23 A2995 RMK AO2 LTG DSNT ALQDS TSB03 PRESRR P0002
KISM 192109Z 11009KT 10SM -TSRA FEW003 SCT010 BKN022 28/23 A2993 RMK AO2 LTG DSNT ALQDS TSB03 P0001
KISM 192056Z 17013KT 9SM -RA SCT006 BKN016 OVC055 28/23 A2992 RMK AO2 PK WND 16029/2036 LTG DSNT ALQDS RAB15 SLP133 P0056 60056 T02830228 55016
KISM 192050Z 17016KT 8SM RA FEW006 BKN022 OVC048 29/23 A2992 RMK AO2 PK WND 16029/2036 LTG DSNT ALQDS RAB15 P0055
KISM 192041Z 16020G29KT 4SM +RA FEW014 SCT022 OVC048 27/22 A2991 RMK AO2 PK WND 16029/2036 LTG DSNT E-SW RAB15 P0050
KISM 192036Z 16022G29KT 1 1/4SM +RA FEW014 BKN048 28/22 A2990 RMK AO2 PK WND 16029/2036 VIS 1/4V5 LTG DSNT E-SW RAB15 P0044
KISM 191956Z 13005KT 10SM FEW050 SCT060 BKN120 33/24 A2992 RMK AO2 LTG DSNT E-SW SLP132 T03280239
KISM 191856Z 00000KT 10SM FEW047 33/22 A2994 RMK AO2 LTG DSNT E AND S SLP140 T03280222
KISM 191656Z 28006KT 10SM BKN040 33/23 A2999 RMK AO2 SLP156 T03280233
KISM 191556Z VRB03KT 10SM FEW030 33/23 A3000 RMK AO2 SLP160 T03280233
KISM 191356Z 00000KT 10SM CLR 29/24 A3000 RMK AO2 SLP159 T02940239
KISM 191256Z 24003KT 10SM CLR 28/24 A2999 RMK AO2 SLP156 T02780239
KISM 191156Z 00000KT 10SM CLR 26/23 A2998 RMK AO2 SLP153 T02560233 10256 20250 53014
KISM 191056Z 00000KT 10SM CLR 26/23 A2997 RMK AO2 SLP149 T02560228
KISM 190956Z AUTO 00000KT 10SM CLR 25/23 A2995 RMK AO2 SLP142 T02500228
KISM 190856Z AUTO 00000KT 10SM SCT050 SCT070 25/23 A2994 RMK AO2 SLP139 T02500233 56008
KISM 190756Z AUTO 00000KT 10SM CLR 25/23 A2994 RMK AO2 SLP141 T02500233
KISM 190656Z AUTO 00000KT 10SM FEW050 25/23 A2995 RMK AO2 SLP142 T02500233
KISM 190556Z AUTO 00000KT 10SM CLR 25/23 A2996 RMK AO2 SLP148 60000 T02500233 10294 20250 58004
KISM 190456Z AUTO 23003KT 10SM FEW070 26/23 A2997 RMK AO2 SLP150 T02560233 403390256
KISM 190356Z AUTO 22003KT 10SM BKN050 26/23 A2998 RMK AO2 SLP152 T02610233
KISM 190256Z AUTO 16004KT 10SM OVC090 27/24 A2998 RMK AO2 SLP152 60000 T02720239 51020
KISM 190156Z AUTO 17006KT 10SM BKN050 28/23 A2997 RMK AO2 LTG DSNT SW TSE04 SLP150 T02780233
KISM 190110Z 14006KT 10SM CLR 27/23 A2996 RMK AO2 LTG DSNT S TSE04
KISM 190056Z 11005KT 10SM TS SCT060 27/23 A2995 RMK AO2 LTG DSNT S TSB2357RAB05E54 SLP142 P0000 T02720233
KISM 190003Z 36006KT 9SM VCTS BKN060 29/23 A2992 RMK AO2 LTG DSNT NE AND E TSB2357
KISM 182356Z 34007KT 10SM OVC060 29/23 A2992 RMK AO2 LTG DSNT NE SLP132 T02940228 10339 20294 53005
KISM 182256Z 26009KT 10SM SCT050 32/22 A2991 RMK AO2 LTG DSNT NE SLP128 T03220217
KISM 182156Z 17003KT 10SM CLR 33/19 A2991 RMK AO2 LTG DSNT N SLP127 T03330189
KISM 182056Z 14005KT 10SM CLR 34/20 A2990 RMK AO2 LTG DSNT N SLP127 T03390200 56024